Time;durP1;ratioP1;P1;durP2;ratioP2;P2;SDS_P1;SDS_P2;PMS_P1;PMS_P2;Temp;Humidity;BMP_temperature;BMP_pressure;BME280_temperature;BME280_humidity;BME280_pressure;Samples;Min_cycle;Max_cycle;Signal;HPM_P1;HPM_P2
2021/03/31 00:01:38;;;;;;;13.13;11.23;;;12.20;1.00;;;;;;5074012;28;20202;-58
2021/03/31 00:04:04;;;;;;;15.70;11.00;;;12.20;1.00;;;;;;5086451;28;20171;-57
2021/03/31 00:06:29;;;;;;;13.47;10.00;;;12.10;1.00;;;;;;5057561;28;20577;-56
2021/03/31 00:08:55;;;;;;;12.50;10.03;;;12.10;1.00;;;;;;5073358;28;20183;-56
2021/03/31 00:11:21;;;;;;;14.30;10.40;;;12.10;1.00;;;;;;5065980;28;20192;-58
2021/03/31 00:13:46;;;;;;;14.20;10.77;;;12.10;1.00;;;;;;5069123;28;20179;-57
2021/03/31 00:16:12;;;;;;;12.10;9.70;;;12.90;1.00;;;;;;5069329;28;20949;-58
2021/03/31 00:18:38;;;;;;;13.97;10.27;;;11.90;1.00;;;;;;5076390;28;20233;-56
2021/03/31 00:21:04;;;;;;;12.63;10.10;;;11.80;1.00;;;;;;5075881;28;20767;-58
2021/03/31 00:23:30;;;;;;;13.17;9.13;;;11.90;1.00;;;;;;5080287;28;20262;-57
2021/03/31 00:25:56;;;;;;;9.50;8.43;;;11.90;1.00;;;;;;5071633;28;20484;-56
2021/03/31 00:28:23;;;;;;;13.43;9.07;;;11.90;1.00;;;;;;5069761;28;20988;-57
2021/03/31 00:30:49;;;;;;;15.97;10.10;;;11.90;1.00;;;;;;5078561;28;20441;-57
2021/03/31 00:33:16;;;;;;;12.80;9.00;;;11.90;1.00;;;;;;5067905;28;20456;-57
2021/03/31 00:35:42;;;;;;;13.53;9.33;;;11.80;1.00;;;;;;5068695;28;20450;-58
2021/03/31 00:38:08;;;;;;;13.90;10.60;;;11.70;1.00;;;;;;5066560;28;20461;-57
2021/03/31 00:40:46;;;;;;;12.50;9.73;;;11.70;1.00;;;;;;5069842;28;20191;-57
2021/03/31 00:43:12;;;;;;;12.90;9.50;;;11.70;1.00;;;;;;5071972;28;20468;-57
2021/03/31 00:45:38;;;;;;;13.17;10.50;;;11.60;1.00;;;;;;5072178;28;20556;-55
2021/03/31 00:48:04;;;;;;;17.83;10.10;;;11.60;1.00;;;;;;5087784;28;21054;-57
2021/03/31 00:50:30;;;;;;;10.43;9.43;;;11.60;1.00;;;;;;5078515;28;20452;-56
2021/03/31 00:52:58;;;;;;;11.90;9.83;;;11.60;1.00;;;;;;5055875;28;20437;-56
2021/03/31 00:55:26;;;;;;;9.70;8.40;;;11.60;1.00;;;;;;5074098;28;20500;-58
2021/03/31 00:57:52;;;;;;;14.63;9.20;;;11.60;1.00;;;;;;5074335;28;20452;-59
2021/03/31 01:00:18;;;;;;;13.10;9.17;;;11.50;1.00;;;;;;5083836;28;20445;-57
2021/03/31 01:02:45;;;;;;;11.20;9.53;;;11.50;1.00;;;;;;5067850;28;20453;-57
2021/03/31 01:05:13;;;;;;;12.10;9.07;;;11.40;1.00;;;;;;5078753;28;20795;-58
2021/03/31 01:07:38;;;;;;;12.13;9.60;;;11.30;1.00;;;;;;5077435;28;20457;-57
2021/03/31 01:10:06;;;;;;;13.43;9.00;;;11.30;1.00;;;;;;5073626;28;20506;-58
2021/03/31 01:12:55;;;;;;;15.53;8.87;;;11.40;1.00;;;;;;5081135;28;20183;-57
2021/03/31 01:15:34;;;;;;;8.97;7.80;;;11.30;1.00;;;;;;5071885;28;20458;-57
2021/03/31 01:18:14;;;;;;;12.30;8.77;;;11.30;1.00;;;;;;5080434;28;20480;-58
2021/03/31 01:20:39;;;;;;;11.37;8.40;;;11.30;1.00;;;;;;5073738;28;20444;-58
2021/03/31 01:23:40;;;;;;;11.17;9.13;;;11.20;1.00;;;;;;5076119;28;20529;-55
2021/03/31 01:26:31;;;;;;;13.60;9.60;;;11.10;1.00;;;;;;5071432;28;20239;-56
2021/03/31 01:29:34;;;;;;;13.00;10.00;;;11.10;1.00;;;;;;5079462;28;20810;-57
2021/03/31 01:32:31;;;;;;;15.20;9.73;;;11.10;1.00;;;;;;5070278;28;20445;-58
2021/03/31 01:35:00;;;;;;;12.17;8.37;;;11.10;1.00;;;;;;5072982;28;20455;-56
2021/03/31 01:37:35;;;;;;;15.67;9.33;;;11.10;1.00;;;;;;5074993;28;20901;-58
2021/03/31 01:40:05;;;;;;;15.37;9.20;;;11.10;1.00;;;;;;5082300;28;20438;-57
2021/03/31 01:42:34;;;;;;;9.90;8.90;;;11.10;1.00;;;;;;5087381;28;20472;-57
2021/03/31 01:45:04;;;;;;;14.50;8.70;;;11.00;1.00;;;;;;5069107;28;20475;-58
2021/03/31 01:47:32;;;;;;;13.30;9.27;;;11.00;1.00;;;;;;5072711;28;20454;-56
2021/03/31 01:50:00;;;;;;;12.40;9.30;;;11.00;1.00;;;;;;5073954;28;20441;-58
2021/03/31 01:52:27;;;;;;;14.43;9.60;;;10.90;1.00;;;;;;5078841;28;20807;-57
2021/03/31 01:54:54;;;;;;;13.50;9.10;;;10.80;1.00;;;;;;5078156;28;20985;-57
2021/03/31 01:57:23;;;;;;;10.13;9.03;;;10.80;1.00;;;;;;5089345;28;20436;-58
2021/03/31 01:59:51;;;;;;;13.47;9.40;;;10.70;1.00;;;;;;5073096;28;20941;-58
2021/03/31 02:02:18;;;;;;;11.80;9.20;;;10.70;1.00;;;;;;5071897;28;20452;-56
2021/03/31 02:04:45;;;;;;;11.83;10.53;;;10.60;1.00;;;;;;5071567;28;20558;-57
2021/03/31 02:07:11;;;;;;;12.10;8.80;;;10.50;1.00;;;;;;5076262;28;20547;-56
2021/03/31 02:09:43;;;;;;;17.47;9.90;;;10.40;1.00;;;;;;5074909;28;20448;-55
2021/03/31 02:12:12;;;;;;;13.53;10.10;;;10.50;1.00;;;;;;5074202;28;20536;-58
2021/03/31 02:14:46;;;;;;;12.40;8.60;;;10.50;1.00;;;;;;5082955;28;21005;-57
2021/03/31 02:17:18;;;;;;;12.00;8.20;;;10.50;1.00;;;;;;5078471;28;20437;-57
2021/03/31 02:19:46;;;;;;;11.23;8.40;;;10.40;1.00;;;;;;5080976;28;20469;-56
2021/03/31 02:22:14;;;;;;;16.57;9.50;;;10.50;1.00;;;;;;5072450;28;20450;-57
2021/03/31 02:24:40;;;;;;;14.10;8.53;;;10.50;1.00;;;;;;5070494;28;20480;-58
2021/03/31 02:27:06;;;;;;;10.03;7.37;;;10.50;1.00;;;;;;5070928;28;20965;-57
2021/03/31 02:29:32;;;;;;;10.70;9.03;;;10.40;1.00;;;;;;5071974;28;20185;-58
2021/03/31 02:31:59;;;;;;;14.07;8.97;;;10.40;1.00;;;;;;5066583;28;20995;-56
2021/03/31 02:34:26;;;;;;;8.93;7.80;;;10.40;1.00;;;;;;5079205;28;20247;-56
2021/03/31 02:36:52;;;;;;;14.83;9.33;;;11.60;1.00;;;;;;5071370;28;20456;-56
2021/03/31 02:39:21;;;;;;;12.53;9.00;;;10.40;1.00;;;;;;5071413;28;20475;-55
2021/03/31 02:41:50;;;;;;;13.03;8.93;;;10.30;1.00;;;;;;5082627;28;20444;-57
2021/03/31 02:44:18;;;;;;;11.33;8.17;;;10.20;1.00;;;;;;5079003;28;20812;-55
2021/03/31 02:46:45;;;;;;;13.83;9.03;;;10.20;1.00;;;;;;5071051;28;20452;-57
2021/03/31 02:49:12;;;;;;;9.03;8.10;;;10.20;1.00;;;;;;5088621;28;20464;-56
2021/03/31 02:51:39;;;;;;;12.20;8.30;;;10.20;1.00;;;;;;5091886;28;20791;-58
2021/03/31 02:54:06;;;;;;;11.00;9.20;;;10.20;1.00;;;;;;5091723;28;20436;-57
2021/03/31 02:56:33;;;;;;;13.43;10.03;;;10.20;1.00;;;;;;5072014;28;20444;-57
2021/03/31 02:59:00;;;;;;;12.43;9.20;;;10.10;1.00;;;;;;5071299;28;20444;-58
2021/03/31 03:01:27;;;;;;;11.23;9.07;;;10.10;1.00;;;;;;5069802;28;20621;-57
2021/03/31 03:03:55;;;;;;;11.47;9.63;;;10.10;1.00;;;;;;5078879;28;20971;-58
2021/03/31 03:06:23;;;;;;;14.17;9.90;;;10.00;1.00;;;;;;5080580;28;21042;-57
2021/03/31 03:08:49;;;;;;;11.33;8.80;;;10.00;1.00;;;;;;5066599;28;20445;-57
2021/03/31 03:11:15;;;;;;;17.03;10.43;;;10.00;1.00;;;;;;5079405;28;20462;-55
2021/03/31 03:13:42;;;;;;;12.87;9.57;;;10.00;1.00;;;;;;5083530;28;20440;-57
2021/03/31 03:16:08;;;;;;;11.37;8.80;;;10.00;1.00;;;;;;5078877;28;20459;-58
2021/03/31 03:18:34;;;;;;;12.60;8.70;;;9.90;1.00;;;;;;5069947;28;20456;-56
2021/03/31 03:21:00;;;;;;;11.77;9.07;;;9.90;1.00;;;;;;5079729;28;20441;-57
2021/03/31 03:23:26;;;;;;;14.00;9.00;;;9.80;1.00;;;;;;5071076;28;20198;-57
2021/03/31 03:25:52;;;;;;;12.70;9.90;;;9.80;1.00;;;;;;5067966;28;20232;-57
2021/03/31 03:28:21;;;;;;;12.07;9.40;;;9.80;1.00;;;;;;5070774;28;20500;-57
2021/03/31 03:30:48;;;;;;;11.73;7.90;;;9.80;1.00;;;;;;5069637;28;20448;-57
2021/03/31 03:33:16;;;;;;;13.57;9.53;;;9.80;1.00;;;;;;5066991;28;20449;-57
2021/03/31 03:35:42;;;;;;;11.63;9.80;;;9.80;1.00;;;;;;5083322;28;20454;-57
2021/03/31 03:38:08;;;;;;;10.70;9.30;;;9.80;1.00;;;;;;5070621;28;20460;-58
2021/03/31 03:40:34;;;;;;;17.20;9.37;;;9.70;1.00;;;;;;5091113;28;20522;-57
2021/03/31 03:42:59;;;;;;;10.90;8.60;;;9.70;1.00;;;;;;5072543;28;20547;-57
2021/03/31 03:45:26;;;;;;;9.77;8.60;;;9.70;1.00;;;;;;5070157;28;20205;-57
2021/03/31 03:47:53;;;;;;;11.43;9.30;;;9.70;1.00;;;;;;5070801;28;20541;-57
2021/03/31 03:50:18;;;;;;;15.00;8.53;;;9.70;1.00;;;;;;5089766;28;20946;-57
2021/03/31 03:52:47;;;;;;;11.60;8.90;;;9.60;1.00;;;;;;5074284;28;20452;-57
2021/03/31 03:55:18;;;;;;;11.50;8.23;;;9.60;1.00;;;;;;5068091;28;20882;-57
2021/03/31 03:57:44;;;;;;;14.50;9.57;;;10.10;1.00;;;;;;5075483;28;20453;-57
2021/03/31 04:00:14;;;;;;;12.90;9.30;;;9.50;1.00;;;;;;5090870;28;20462;-57
2021/03/31 04:02:41;;;;;;;11.43;8.83;;;9.40;1.00;;;;;;5078442;28;20862;-58
2021/03/31 04:05:08;;;;;;;17.20;10.10;;;9.50;1.00;;;;;;5072936;28;20512;-54
2021/03/31 04:07:33;;;;;;;14.37;9.50;;;9.50;1.00;;;;;;5070265;28;20441;-56
2021/03/31 04:10:00;;;;;;;13.87;10.70;;;9.50;1.00;;;;;;5080998;28;20443;-56
2021/03/31 04:12:27;;;;;;;12.33;9.03;;;9.40;1.00;;;;;;5069935;28;20211;-56
2021/03/31 04:14:54;;;;;;;11.33;9.37;;;9.30;1.00;;;;;;5070300;28;20873;-57
2021/03/31 04:17:20;;;;;;;15.23;9.77;;;9.20;1.00;;;;;;5069402;28;20540;-56
2021/03/31 04:19:49;;;;;;;13.00;9.80;;;9.20;1.00;;;;;;5070028;28;20535;-58
2021/03/31 04:22:15;;;;;;;13.30;9.67;;;9.30;1.00;;;;;;5070398;28;20189;-59
2021/03/31 04:24:40;;;;;;;14.53;10.37;;;9.20;1.00;;;;;;5069516;28;21026;-58
2021/03/31 04:27:09;;;;;;;13.87;9.97;;;9.10;1.00;;;;;;5069311;28;20186;-58
2021/03/31 04:29:40;;;;;;;14.80;10.10;;;9.20;1.00;;;;;;5069317;28;20186;-58
2021/03/31 04:32:08;;;;;;;12.53;9.30;;;9.20;1.00;;;;;;5069834;28;21056;-58
2021/03/31 04:34:34;;;;;;;15.50;9.33;;;9.30;1.00;;;;;;5067878;28;21569;-57
2021/03/31 04:37:00;;;;;;;13.27;10.67;;;9.30;1.00;;;;;;5069070;28;20843;-59
2021/03/31 04:39:25;;;;;;;14.40;10.80;;;9.30;1.00;;;;;;5070222;28;20261;-59
2021/03/31 04:41:51;;;;;;;13.30;9.13;;;9.30;1.00;;;;;;5069307;28;20193;-58
2021/03/31 04:44:16;;;;;;;12.43;9.77;;;9.30;1.00;;;;;;5069210;28;20619;-58
2021/03/31 04:46:42;;;;;;;13.77;10.03;;;9.20;1.00;;;;;;5069632;28;20667;-58
2021/03/31 04:49:07;;;;;;;13.10;9.40;;;9.20;1.00;;;;;;5070843;28;20642;-58
2021/03/31 04:51:33;;;;;;;11.90;8.80;;;9.20;1.00;;;;;;5069723;28;20220;-58
2021/03/31 04:53:58;;;;;;;16.50;10.30;;;9.20;1.00;;;;;;5069654;28;20279;-58
2021/03/31 04:56:24;;;;;;;15.70;9.60;;;9.20;1.00;;;;;;5070018;28;20205;-58
2021/03/31 04:58:49;;;;;;;14.00;9.30;;;9.20;1.00;;;;;;5068903;28;20189;-60
2021/03/31 05:01:15;;;;;;;10.97;9.00;;;9.20;1.00;;;;;;5068941;28;20374;-59
2021/03/31 05:03:41;;;;;;;13.80;9.63;;;9.20;1.00;;;;;;5066323;28;20552;-58
2021/03/31 05:06:06;;;;;;;15.53;9.40;;;9.10;1.00;;;;;;5069775;28;20213;-59
2021/03/31 05:08:32;;;;;;;12.70;9.40;;;9.40;1.00;;;;;;5068590;28;20185;-59
2021/03/31 05:10:57;;;;;;;13.50;8.50;;;9.30;1.00;;;;;;5073230;28;20575;-58
2021/03/31 05:13:23;;;;;;;13.60;8.90;;;9.20;1.00;;;;;;5076296;28;20192;-58
2021/03/31 05:15:48;;;;;;;14.27;9.67;;;9.30;1.00;;;;;;5069685;28;20182;-59
2021/03/31 05:18:14;;;;;;;12.93;9.10;;;9.20;1.00;;;;;;5077836;28;20181;-59
2021/03/31 05:20:40;;;;;;;125.20;28.73;;;9.30;1.00;;;;;;5080611;28;20194;-58
2021/03/31 05:23:06;;;;;;;24.43;12.00;;;9.20;1.00;;;;;;5087706;28;20223;-59
2021/03/31 05:25:31;;;;;;;17.70;9.37;;;9.30;1.00;;;;;;5074883;28;20500;-59
2021/03/31 05:27:57;;;;;;;27.37;11.10;;;9.30;1.00;;;;;;5071019;28;20201;-60
2021/03/31 05:30:23;;;;;;;22.53;9.80;;;9.30;1.00;;;;;;5072565;28;20188;-60
2021/03/31 05:32:49;;;;;;;10.77;9.00;;;9.40;1.00;;;;;;5071942;28;20183;-59
2021/03/31 05:35:15;;;;;;;14.47;8.93;;;9.50;1.00;;;;;;5073250;28;20439;-59
2021/03/31 05:37:40;;;;;;;13.10;8.77;;;9.60;1.00;;;;;;5088359;28;20254;-59
2021/03/31 05:40:07;;;;;;;14.70;9.80;;;9.60;1.00;;;;;;5093348;28;20180;-60
2021/03/31 05:42:33;;;;;;;20.53;9.37;;;9.60;1.00;;;;;;5081777;28;20696;-59
2021/03/31 05:45:04;;;;;;;26.43;11.47;;;9.60;1.00;;;;;;5072015;28;20471;-58
2021/03/31 05:47:34;;;;;;;14.07;8.90;;;9.60;1.00;;;;;;5072806;28;20465;-59
2021/03/31 05:50:00;;;;;;;51.83;15.50;;;9.60;1.00;;;;;;5073015;28;20449;-58
2021/03/31 05:52:25;;;;;;;17.10;9.50;;;9.60;1.00;;;;;;5073300;28;20471;-60
2021/03/31 05:54:51;;;;;;;25.37;9.83;;;9.80;1.00;;;;;;5072466;28;20185;-59
2021/03/31 05:57:21;;;;;;;20.30;10.43;;;9.80;1.00;;;;;;5071971;28;20650;-59
2021/03/31 05:59:47;;;;;;;13.40;8.90;;;9.90;1.00;;;;;;5073025;28;20953;-59
2021/03/31 06:02:15;;;;;;;13.40;8.77;;;10.10;1.00;;;;;;5071985;28;20447;-59
2021/03/31 06:04:41;;;;;;;14.47;8.83;;;10.10;1.00;;;;;;5071583;28;20652;-60
2021/03/31 06:07:07;;;;;;;14.07;9.10;;;10.30;1.00;;;;;;5072692;28;20822;-59
2021/03/31 06:09:33;;;;;;;12.53;9.17;;;10.40;1.00;;;;;;5070803;28;20436;-59
2021/03/31 06:12:00;;;;;;;14.93;9.27;;;10.40;1.00;;;;;;5073726;28;20439;-59
2021/03/31 06:14:35;;;;;;;17.17;9.97;;;10.50;1.00;;;;;;5069829;28;20197;-59
2021/03/31 06:17:06;;;;;;;15.80;8.93;;;10.60;1.00;;;;;;5071316;28;20857;-60
2021/03/31 06:19:34;;;;;;;16.10;9.47;;;10.90;1.00;;;;;;5068881;28;20527;-59
2021/03/31 06:22:32;;;;;;;15.23;10.23;;;10.90;1.00;;;;;;5072103;28;20434;-60
2021/03/31 06:25:17;;;;;;;12.00;8.87;;;10.90;1.00;;;;;;5070836;28;20467;-60
2021/03/31 06:27:54;;;;;;;10.97;8.50;;;11.10;1.00;;;;;;5069466;28;20448;-59
2021/03/31 06:30:24;;;;;;;12.20;8.97;;;11.10;1.00;;;;;;5068388;28;20848;-60
2021/03/31 06:32:52;;;;;;;13.03;9.30;;;11.20;1.00;;;;;;5071493;28;20441;-60
2021/03/31 06:35:24;;;;;;;12.97;7.63;;;11.40;1.00;;;;;;5070528;28;20441;-59
2021/03/31 06:37:50;;;;;;;10.70;8.03;;;11.50;1.00;;;;;;5072082;28;20442;-59
2021/03/31 06:40:45;;;;;;;17.13;9.30;;;11.60;1.00;;;;;;5070616;28;20771;-60
2021/03/31 06:43:19;;;;;;;14.30;9.73;;;11.50;1.00;;;;;;5071004;28;20541;-60
2021/03/31 06:48:25;;;;;;;12.67;8.90;;;11.80;1.00;;;;;;5071724;28;20840;-60
2021/03/31 06:50:50;;;;;;;21.50;11.23;;;11.90;1.00;;;;;;5070753;28;20536;-60
2021/03/31 06:53:28;;;;;;;14.03;10.53;;;12.10;1.00;;;;;;5071434;28;20543;-60
2021/03/31 06:56:01;;;;;;;14.20;10.07;;;12.20;1.00;;;;;;5070252;28;20179;-60
2021/03/31 06:58:27;;;;;;;15.73;10.57;;;12.20;1.00;;;;;;5069624;28;20461;-60
2021/03/31 07:00:53;;;;;;;27.97;10.37;;;12.30;1.00;;;;;;5069157;28;20453;-60
2021/03/31 07:03:19;;;;;;;13.13;9.40;;;12.50;1.00;;;;;;5071498;28;20494;-60
2021/03/31 07:05:45;;;;;;;15.87;9.50;;;12.60;1.00;;;;;;5067706;28;20212;-60
2021/03/31 07:08:16;;;;;;;14.40;10.47;;;13.90;1.00;;;;;;5071504;28;20429;-61
2021/03/31 07:10:52;;;;;;;12.47;9.90;;;12.90;1.00;;;;;;5069364;28;20445;-61
2021/03/31 07:13:32;;;;;;;15.37;10.07;;;13.20;1.00;;;;;;5070330;28;20437;-60
2021/03/31 07:15:59;;;;;;;14.73;10.70;;;13.30;1.00;;;;;;5070968;28;20437;-59
2021/03/31 07:18:26;;;;;;;16.27;10.10;;;13.40;1.00;;;;;;5071227;28;20442;-58
2021/03/31 07:20:52;;;;;;;20.43;10.23;;;13.50;1.00;;;;;;5070846;28;20769;-59
2021/03/31 07:23:22;;;;;;;20.60;9.50;;;13.50;1.00;;;;;;5071285;28;20444;-59
2021/03/31 07:25:49;;;;;;;11.10;9.90;;;13.60;1.00;;;;;;5069640;28;20970;-59
2021/03/31 07:28:23;;;;;;;11.27;8.53;;;13.70;1.00;;;;;;5069793;28;20429;-58
2021/03/31 07:30:49;;;;;;;13.33;9.40;;;13.90;1.00;;;;;;5069433;28;20956;-59
2021/03/31 07:33:25;;;;;;;12.80;9.43;;;14.10;1.00;;;;;;5075389;28;20433;-59
2021/03/31 07:35:52;;;;;;;17.07;10.17;;;14.30;1.00;;;;;;5069370;28;20446;-59
2021/03/31 07:38:21;;;;;;;16.50;9.97;;;14.40;1.00;;;;;;5079335;28;20452;-59
2021/03/31 07:40:49;;;;;;;19.03;11.43;;;14.60;1.00;;;;;;5087305;28;20432;-59
2021/03/31 07:43:22;;;;;;;12.77;9.47;;;14.80;1.00;;;;;;5090875;28;20437;-59
2021/03/31 07:45:54;;;;;;;19.40;9.43;;;15.00;1.00;;;;;;5089491;28;20460;-59
2021/03/31 07:48:21;;;;;;;15.37;9.60;;;15.10;1.00;;;;;;5078651;28;20435;-59
2021/03/31 07:50:46;;;;;;;18.10;10.73;;;15.20;1.00;;;;;;5069804;28;20430;-59
2021/03/31 07:53:13;;;;;;;15.97;10.47;;;15.30;1.00;;;;;;5075818;28;20437;-59
2021/03/31 07:55:39;;;;;;;15.97;10.10;;;15.30;1.00;;;;;;5091055;28;20640;-58
2021/03/31 07:58:16;;;;;;;16.13;8.73;;;15.50;1.00;;;;;;5081599;28;20437;-59
2021/03/31 08:00:48;;;;;;;13.37;9.10;;;15.70;1.00;;;;;;5077701;28;20183;-59
2021/03/31 08:03:14;;;;;;;18.20;9.53;;;15.90;1.00;;;;;;5090567;28;20702;-59
2021/03/31 08:06:05;;;;;;;11.63;9.20;;;16.10;1.00;;;;;;5080797;28;20448;-59
2021/03/31 08:08:32;;;;;;;13.33;8.30;;;16.30;1.00;;;;;;5090586;28;20420;-59
2021/03/31 08:10:59;;;;;;;17.50;8.50;;;16.30;1.00;;;;;;5073180;28;20567;-59
2021/03/31 08:13:38;;;;;;;18.10;9.77;;;16.40;1.00;;;;;;5069931;28;20430;-59
2021/03/31 08:16:26;;;;;;;13.10;8.90;;;16.80;1.00;;;;;;5069967;28;20433;-59
2021/03/31 08:18:54;;;;;;;14.73;9.20;;;17.10;1.00;;;;;;5073266;28;20436;-59
2021/03/31 08:21:22;;;;;;;14.47;8.80;;;17.20;1.00;;;;;;5085471;28;20986;-59
2021/03/31 08:23:49;;;;;;;13.17;9.33;;;17.40;1.00;;;;;;5070549;28;20524;-59
2021/03/31 08:26:33;;;;;;;16.23;9.77;;;17.50;1.00;;;;;;5069584;28;21048;-59
2021/03/31 08:29:08;;;;;;;14.93;9.90;;;17.90;1.00;;;;;;5068694;28;20449;-59
2021/03/31 08:31:41;;;;;;;12.57;9.33;;;17.90;1.00;;;;;;5082452;28;21098;-60
2021/03/31 08:34:12;;;;;;;15.70;8.03;;;17.80;1.00;;;;;;5067399;28;21011;-60
2021/03/31 08:36:39;;;;;;;17.70;9.80;;;17.80;1.00;;;;;;5069582;28;20450;-60
2021/03/31 08:39:09;;;;;;;13.60;9.10;;;17.90;1.00;;;;;;5086093;28;20506;-60
2021/03/31 08:41:42;;;;;;;16.40;8.97;;;18.30;1.00;;;;;;5071820;28;20437;-59
2021/03/31 08:44:19;;;;;;;11.70;9.30;;;18.30;1.00;;;;;;5069581;28;20441;-59
2021/03/31 08:46:44;;;;;;;15.57;9.20;;;18.60;1.00;;;;;;5079632;28;20988;-60
2021/03/31 08:49:24;;;;;;;12.40;9.60;;;18.60;1.00;;;;;;5078699;28;20434;-59
2021/03/31 08:51:53;;;;;;;13.87;8.33;;;19.00;1.00;;;;;;5070319;28;20297;-59
2021/03/31 08:54:39;;;;;;;13.30;8.30;;;19.30;1.00;;;;;;5077447;28;20434;-59
2021/03/31 08:57:18;;;;;;;13.27;9.63;;;19.40;1.00;;;;;;5081496;28;20470;-59
2021/03/31 08:59:49;;;;;;;12.60;9.60;;;19.60;1.00;;;;;;5078694;28;20432;-59
2021/03/31 09:02:19;;;;;;;13.83;8.87;;;19.60;1.00;;;;;;5077679;28;20495;-61
2021/03/31 09:04:45;;;;;;;11.47;9.10;;;19.70;1.00;;;;;;5073067;28;20437;-61
2021/03/31 09:07:12;;;;;;;12.93;9.97;;;19.80;1.00;;;;;;5073339;28;20503;-61
2021/03/31 09:09:39;;;;;;;14.80;9.00;;;19.90;1.00;;;;;;5073394;28;20514;-61
2021/03/31 09:12:06;;;;;;;12.30;9.60;;;20.00;1.00;;;;;;5075655;28;20456;-62
2021/03/31 09:14:33;;;;;;;14.70;9.90;;;20.00;1.00;;;;;;5073546;28;20469;-61
2021/03/31 09:17:11;;;;;;;14.63;9.70;;;20.20;1.00;;;;;;5073331;28;20433;-61
2021/03/31 09:19:41;;;;;;;12.90;8.83;;;20.30;1.00;;;;;;5070976;28;20433;-61
2021/03/31 09:22:14;;;;;;;12.60;9.63;;;20.50;1.00;;;;;;5092460;28;20775;-64
2021/03/31 09:24:45;;;;;;;16.53;9.00;;;20.70;1.00;;;;;;5083305;28;21001;-61
2021/03/31 09:27:13;;;;;;;17.40;9.40;;;20.90;1.00;;;;;;5081843;28;20436;-62
2021/03/31 09:29:43;;;;;;;12.80;9.17;;;21.10;1.00;;;;;;5080987;28;20961;-61
2021/03/31 09:32:16;;;;;;;13.00;9.70;;;21.40;1.00;;;;;;5092225;28;20435;-61
2021/03/31 09:34:43;;;;;;;13.07;9.13;;;21.70;1.00;;;;;;5076419;28;20274;-60
2021/03/31 09:37:12;;;;;;;13.07;9.33;;;21.90;1.00;;;;;;5073108;28;20994;-61
2021/03/31 09:39:53;;;;;;;13.73;9.50;;;22.10;1.00;;;;;;5073041;28;20528;-62
2021/03/31 09:42:29;;;;;;;12.83;8.77;;;22.30;1.00;;;;;;5072662;28;20440;-61
2021/03/31 09:44:54;;;;;;;15.50;9.93;;;22.50;1.00;;;;;;5071268;28;20530;-61
2021/03/31 09:47:22;;;;;;;11.90;8.77;;;22.60;1.00;;;;;;5077868;28;20914;-61
2021/03/31 09:49:49;;;;;;;13.33;8.43;;;22.50;1.00;;;;;;5091947;28;20186;-61
2021/03/31 09:52:16;;;;;;;14.77;8.70;;;22.50;1.00;;;;;;5092806;28;20458;-61
2021/03/31 09:54:46;;;;;;;12.03;8.43;;;22.60;1.00;;;;;;5091911;28;20941;-61
2021/03/31 09:57:15;;;;;;;13.57;9.17;;;22.60;1.00;;;;;;5076697;28;20444;-61
2021/03/31 09:59:42;;;;;;;12.10;8.97;;;22.80;1.00;;;;;;5072915;28;20856;-60
2021/03/31 10:02:09;;;;;;;12.77;8.40;;;22.80;1.00;;;;;;5086886;28;20432;-61
2021/03/31 10:04:38;;;;;;;10.50;8.33;;;23.00;1.00;;;;;;5072956;28;20445;-61
2021/03/31 10:07:14;;;;;;;16.20;8.70;;;22.90;1.00;;;;;;5072771;28;20445;-61
2021/03/31 10:09:44;;;;;;;11.70;7.80;;;23.20;1.00;;;;;;5072088;28;20440;-61
2021/03/31 10:12:11;;;;;;;12.97;8.30;;;23.30;1.00;;;;;;5072443;28;20958;-59
2021/03/31 10:14:47;;;;;;;11.80;8.60;;;23.40;1.00;;;;;;5069883;28;20438;-60
2021/03/31 10:17:17;;;;;;;12.50;8.13;;;23.70;1.00;;;;;;5071390;28;20441;-60
2021/03/31 10:19:43;;;;;;;8.57;7.50;;;23.80;1.00;;;;;;5072975;28;20783;-61
2021/03/31 10:22:09;;;;;;;11.57;7.83;;;23.90;1.00;;;;;;5072489;28;20918;-60
2021/03/31 10:24:43;;;;;;;11.53;7.27;;;23.90;1.00;;;;;;5071840;28;20495;-61
2021/03/31 10:27:10;;;;;;;11.10;7.70;;;24.00;1.00;;;;;;5072177;28;20449;-61
2021/03/31 10:29:44;;;;;;;12.07;7.30;;;24.40;1.00;;;;;;5067435;28;20504;-61
2021/03/31 10:32:10;;;;;;;9.43;7.27;;;25.00;1.00;;;;;;5072618;28;20465;-61
2021/03/31 10:34:38;;;;;;;7.37;6.50;;;25.00;1.00;;;;;;5073508;28;20444;-62
2021/03/31 10:53:50;;;;;;;8.50;6.80;;;24.90;1.00;;;;;;5046867;28;20446;-59
2021/03/31 10:56:16;;;;;;;9.43;6.67;;;25.00;1.00;;;;;;5073536;28;20444;-60
2021/03/31 10:58:41;;;;;;;12.50;6.60;;;25.00;1.00;;;;;;5079430;28;20887;-60
2021/03/31 11:01:11;;;;;;;6.60;5.80;;;25.00;1.00;;;;;;5069786;28;20181;-60
2021/03/31 11:03:37;;;;;;;14.23;6.43;;;24.80;1.00;;;;;;5071541;28;20182;-59
2021/03/31 11:06:03;;;;;;;8.10;7.17;;;24.80;1.00;;;;;;5070923;28;20571;-59
2021/03/31 11:08:29;;;;;;;8.40;7.50;;;25.10;1.00;;;;;;5071360;28;20437;-60
2021/03/31 11:10:54;;;;;;;9.83;7.53;;;24.90;1.00;;;;;;5071008;28;20441;-60
2021/03/31 11:13:20;;;;;;;8.47;7.00;;;24.80;1.00;;;;;;5068185;28;20695;-60
2021/03/31 11:15:46;;;;;;;10.10;7.50;;;24.70;1.00;;;;;;5071234;28;20190;-59
2021/03/31 11:25:55;;;;;;;11.93;8.00;;;25.00;1.00;;;;;;5070307;28;20575;-60
2021/03/31 11:28:21;;;;;;;10.33;8.37;;;25.10;1.00;;;;;;5073598;28;20911;-59
2021/03/31 11:30:47;;;;;;;14.40;8.10;;;25.20;1.00;;;;;;5078066;28;20445;-59
2021/03/31 11:33:13;;;;;;;11.03;8.53;;;24.90;1.00;;;;;;5088990;28;20448;-60
2021/03/31 11:35:38;;;;;;;10.87;8.47;;;24.50;1.00;;;;;;5092376;28;20632;-60
2021/03/31 11:38:04;;;;;;;12.40;8.30;;;24.80;1.00;;;;;;5084879;28;20261;-59
2021/03/31 11:40:30;;;;;;;10.73;8.30;;;25.00;1.00;;;;;;5090287;28;20254;-58
2021/03/31 11:42:56;;;;;;;11.70;9.10;;;25.00;1.00;;;;;;5086771;28;20187;-58
2021/03/31 11:45:22;;;;;;;9.97;7.67;;;;;;;;;;5080786;28;20961;-58
2021/03/31 11:47:47;;;;;;;9.33;7.23;;;25.10;1.00;;;;;;5087131;28;20202;-58
2021/03/31 11:50:14;;;;;;;13.50;9.00;;;25.20;1.00;;;;;;5079351;28;20492;-58
2021/03/31 11:52:39;;;;;;;10.43;8.00;;;25.30;1.00;;;;;;5086801;28;20191;-58
2021/03/31 11:55:06;;;;;;;14.37;9.87;;;24.90;1.00;;;;;;5080170;28;20560;-58
2021/03/31 11:57:32;;;;;;;10.93;8.40;;;;;;;;;;5078773;28;20187;-58
2021/03/31 11:59:58;;;;;;;11.27;7.60;;;25.10;1.00;;;;;;5077134;28;20447;-59
2021/03/31 12:02:24;;;;;;;10.23;9.20;;;25.00;1.00;;;;;;5083761;28;20523;-59
2021/03/31 12:04:49;;;;;;;10.07;8.33;;;25.40;1.00;;;;;;5074204;28;20203;-59
2021/03/31 12:07:18;;;;;;;11.93;9.37;;;25.30;1.00;;;;;;5085788;28;20236;-59
2021/03/31 12:09:44;;;;;;;10.40;8.27;;;25.30;1.00;;;;;;5084717;28;20730;-59
2021/03/31 12:12:14;;;;;;;10.20;8.90;;;25.10;1.00;;;;;;5079171;28;20516;-59
2021/03/31 12:14:40;;;;;;;11.37;8.63;;;25.20;1.00;;;;;;5076354;28;20660;-59
2021/03/31 12:17:06;;;;;;;13.73;8.97;;;25.10;1.00;;;;;;5082843;28;20449;-59
2021/03/31 12:19:32;;;;;;;12.03;9.07;;;24.90;1.00;;;;;;5082519;28;20445;-60
2021/03/31 12:21:58;;;;;;;11.90;9.97;;;25.00;1.00;;;;;;5069169;28;20182;-59
2021/03/31 12:24:24;;;;;;;11.10;9.40;;;25.20;1.00;;;;;;5069166;28;20437;-59
2021/03/31 12:26:51;;;;;;;13.70;8.63;;;25.30;1.00;;;;;;5073430;28;20895;-59
2021/03/31 12:29:17;;;;;;;12.80;9.80;;;25.00;1.00;;;;;;5090416;28;20460;-60
2021/03/31 12:31:43;;;;;;;12.07;9.37;;;24.80;1.00;;;;;;5075300;28;20523;-59
2021/03/31 12:34:09;;;;;;;13.93;9.10;;;24.80;1.00;;;;;;5075004;28;20981;-59
2021/03/31 12:36:34;;;;;;;11.43;8.20;;;25.00;1.00;;;;;;5080307;28;20266;-59
2021/03/31 12:39:00;;;;;;;10.60;8.80;;;25.10;1.00;;;;;;5078900;28;20211;-60
2021/03/31 12:41:26;;;;;;;13.40;9.00;;;25.30;1.00;;;;;;5087381;28;20187;-59
2021/03/31 12:43:51;;;;;;;9.53;8.53;;;25.20;1.00;;;;;;5078569;28;20194;-59
2021/03/31 12:46:17;;;;;;;10.97;9.10;;;25.30;1.00;;;;;;5069292;28;20206;-63
2021/03/31 12:48:42;;;;;;;9.83;8.03;;;25.50;1.00;;;;;;5070352;28;20179;-61
2021/03/31 12:51:11;;;;;;;12.10;8.60;;;25.60;1.00;;;;;;5070515;28;20572;-61
2021/03/31 12:53:42;;;;;;;12.23;8.70;;;25.50;1.00;;;;;;5070202;28;20269;-61
2021/03/31 12:56:08;;;;;;;9.57;8.57;;;25.50;1.00;;;;;;5069941;28;20564;-61
2021/03/31 12:58:39;;;;;;;11.57;8.13;;;25.10;1.00;;;;;;5064799;28;20966;-61
2021/03/31 13:01:11;;;;;;;11.03;7.80;;;25.30;1.00;;;;;;5070578;28;20481;-61
2021/03/31 13:03:37;;;;;;;10.60;8.23;;;25.10;1.00;;;;;;5067216;28;20453;-61
2021/03/31 13:06:03;;;;;;;10.57;7.87;;;25.10;1.00;;;;;;5069908;28;20465;-61
2021/03/31 13:08:29;;;;;;;10.20;8.97;;;25.20;1.00;;;;;;5075914;28;20236;-61
2021/03/31 13:10:54;;;;;;;11.37;8.40;;;25.20;1.00;;;;;;5090374;28;20269;-60
2021/03/31 13:16:08;;;;;;;11.20;8.50;;;25.80;1.00;;;;;;5090748;28;20546;-60
2021/03/31 13:31:43;;;;;;;12.47;8.97;;;25.30;1.00;;;;;;5069828;28;20575;-61
2021/03/31 13:34:15;;;;;;;13.27;8.83;;;25.30;1.00;;;;;;5068392;28;20456;-61
2021/03/31 13:36:49;;;;;;;9.90;7.43;;;25.30;1.00;;;;;;5068131;28;20448;-60
2021/03/31 13:39:17;;;;;;;11.13;7.80;;;25.20;1.00;;;;;;5068460;28;20461;-62